createdAt,value
2023-01-13T00:01:37.663Z,31.35
2023-01-13T00:04:08.402Z,30.15
2023-01-13T00:06:39.035Z,36.00
2023-01-13T00:09:09.545Z,34.92
2023-01-13T00:11:40.092Z,30.80
2023-01-13T00:14:12.198Z,35.58
2023-01-13T00:16:42.749Z,35.08
2023-01-13T00:19:13.399Z,35.85
2023-01-13T00:21:44.881Z,37.03
2023-01-13T00:24:15.511Z,28.63
2023-01-13T00:26:46.116Z,27.92
2023-01-13T00:29:21.211Z,30.02
2023-01-13T00:31:53.125Z,35.30
2023-01-13T00:34:24.680Z,29.25
2023-01-13T00:36:55.574Z,32.55
2023-01-13T00:39:26.227Z,35.30
2023-01-13T00:42:13.450Z,31.17
2023-01-13T00:44:45.701Z,32.58
2023-01-13T00:47:16.512Z,40.63
2023-01-13T00:49:47.679Z,31.88
2023-01-13T00:52:18.567Z,35.13
2023-01-13T00:54:49.865Z,39.63
2023-01-13T00:57:21.336Z,35.22
2023-01-13T00:59:53.736Z,34.58
2023-01-13T01:02:24.798Z,41.97
2023-01-13T01:04:55.517Z,35.08
2023-01-13T01:07:26.174Z,42.22
2023-01-13T01:09:57.033Z,45.65
2023-01-13T01:12:27.697Z,47.47
2023-01-13T01:15:00.012Z,40.28
2023-01-13T01:17:31.424Z,43.83
2023-01-13T01:20:01.845Z,44.00
2023-01-13T01:22:32.476Z,46.47
2023-01-13T01:25:02.935Z,49.65
2023-01-13T01:27:33.377Z,47.33
2023-01-13T01:30:05.577Z,45.58
2023-01-13T01:32:37.524Z,42.72
2023-01-13T01:35:08.845Z,44.08
2023-01-13T01:37:39.337Z,42.63
2023-01-13T01:40:10.877Z,35.00
2023-01-13T01:42:58.337Z,37.30
2023-01-13T01:45:33.418Z,40.38
2023-01-13T01:48:07.388Z,35.03
2023-01-13T01:50:39.083Z,39.67
2023-01-13T01:53:15.493Z,33.50
2023-01-13T01:55:46.322Z,43.22
2023-01-13T01:58:21.804Z,34.03
2023-01-13T02:00:54.401Z,27.85
2023-01-13T02:03:25.429Z,33.45
2023-01-13T02:05:56.243Z,36.97
2023-01-13T02:08:26.907Z,31.40
2023-01-13T02:10:57.683Z,26.58
2023-01-13T02:13:27.080Z,35.65
2023-01-13T02:16:06.263Z,40.50
2023-01-13T02:18:53.422Z,45.95
2023-01-13T02:21:43.983Z,55.85
2023-01-13T02:24:56.505Z,43.55
2023-01-13T02:27:46.230Z,50.67
2023-01-13T02:30:43.537Z,46.42
2023-01-13T02:33:31.578Z,45.13
2023-01-13T02:36:08.559Z,54.78
2023-01-13T02:38:46.695Z,45.25
2023-01-13T02:41:54.910Z,46.20
2023-01-13T02:44:31.259Z,46.15
2023-01-13T02:47:09.273Z,56.75
2023-01-13T02:49:43.598Z,50.22
2023-01-13T02:52:16.979Z,51.15
2023-01-13T02:54:51.915Z,47.22
2023-01-13T02:57:25.034Z,55.42
2023-01-13T02:59:58.468Z,47.25
2023-01-13T03:02:31.669Z,53.05
2023-01-13T03:05:03.123Z,55.83
2023-01-13T03:07:57.933Z,50.75
2023-01-13T03:10:48.344Z,58.25
2023-01-13T03:13:31.836Z,53.42
2023-01-13T03:16:13.999Z,59.25
2023-01-13T03:18:53.713Z,55.35
2023-01-13T03:21:28.886Z,52.60
2023-01-13T03:24:06.328Z,58.17
2023-01-13T03:26:44.000Z,56.38
2023-01-13T03:29:21.531Z,56.45
2023-01-13T03:32:00.950Z,44.20
2023-01-13T03:34:38.023Z,44.38
2023-01-13T03:37:11.095Z,44.50
2023-01-13T03:39:47.338Z,44.00
2023-01-13T03:42:22.423Z,47.05
2023-01-13T03:44:57.274Z,49.50
2023-01-13T03:47:34.174Z,35.80
2023-01-13T03:50:09.312Z,32.35
2023-01-13T03:52:44.068Z,36.65
2023-01-13T03:55:19.379Z,34.70
2023-01-13T03:57:55.497Z,34.15
2023-01-13T04:00:29.262Z,36.92
2023-01-13T04:03:07.763Z,35.33
2023-01-13T04:05:44.824Z,34.60
2023-01-13T04:08:22.287Z,29.50
2023-01-13T04:10:56.291Z,34.33
2023-01-13T04:13:31.315Z,28.42
2023-01-13T04:16:08.488Z,31.55
2023-01-13T04:18:41.763Z,30.98
2023-01-13T04:21:14.136Z,32.75
2023-01-13T04:23:45.396Z,27.90
2023-01-13T04:26:16.023Z,30.13
2023-01-13T04:28:46.518Z,32.15
2023-01-13T04:31:17.379Z,24.27
2023-01-13T04:33:48.043Z,29.88
2023-01-13T04:36:20.537Z,27.23
2023-01-13T04:38:51.117Z,35.08
2023-01-13T04:41:21.805Z,31.27
2023-01-13T04:43:52.532Z,26.73
2023-01-13T04:46:23.265Z,26.00
2023-01-13T04:48:53.898Z,25.25
2023-01-13T04:51:26.091Z,30.92
2023-01-13T04:53:56.599Z,28.27
2023-01-13T04:56:27.218Z,24.92
2023-01-13T04:58:57.656Z,30.55
2023-01-13T05:01:28.326Z,24.98
2023-01-13T05:03:58.979Z,28.42
2023-01-13T05:06:31.179Z,34.58
2023-01-13T05:09:01.728Z,29.23
2023-01-13T05:11:49.269Z,27.85
2023-01-13T05:14:36.560Z,31.73
2023-01-13T05:17:07.125Z,30.85
2023-01-13T05:19:39.967Z,26.02
2023-01-13T05:22:28.997Z,34.50
2023-01-13T05:25:16.384Z,30.70
2023-01-13T05:27:47.086Z,33.40
2023-01-13T05:30:18.290Z,35.38
2023-01-13T05:32:49.043Z,33.85
2023-01-13T05:35:19.950Z,36.10
2023-01-13T05:37:52.318Z,35.83
2023-01-13T05:40:39.653Z,30.58
2023-01-13T05:43:23.757Z,36.55
2023-01-13T05:45:58.665Z,35.33
2023-01-13T05:48:31.552Z,40.65
2023-01-13T05:51:03.032Z,33.10
2023-01-13T05:53:35.692Z,37.40
2023-01-13T05:56:07.795Z,37.05
2023-01-13T05:58:38.708Z,34.83
2023-01-13T06:01:10.991Z,41.35
2023-01-13T06:03:41.687Z,31.73
2023-01-13T06:06:12.202Z,29.27
2023-01-13T06:08:44.726Z,27.00
2023-01-13T06:11:15.235Z,36.58
2023-01-13T06:13:45.751Z,38.70
2023-01-13T06:16:16.410Z,43.92
2023-01-13T06:18:46.896Z,46.63
2023-01-13T06:21:17.383Z,33.83
2023-01-13T06:23:49.650Z,40.45
2023-01-13T06:26:23.215Z,30.75
2023-01-13T06:28:54.023Z,32.58
2023-01-13T06:31:24.925Z,34.65
2023-01-13T06:33:59.788Z,28.60
2023-01-13T06:36:34.033Z,29.73
2023-01-13T06:39:07.589Z,28.90
2023-01-13T06:41:54.827Z,38.13
2023-01-13T06:44:27.178Z,47.50
2023-01-13T06:46:57.801Z,39.17
2023-01-13T06:49:28.419Z,32.60
2023-01-13T06:51:59.116Z,35.13
2023-01-13T06:54:31.623Z,29.42
2023-01-13T06:57:02.252Z,34.33
2023-01-13T06:59:35.121Z,32.78
2023-01-13T07:02:06.166Z,37.40
2023-01-13T07:04:36.877Z,31.40
2023-01-13T07:07:08.611Z,30.17
2023-01-13T07:09:40.712Z,37.92
2023-01-13T07:12:11.378Z,32.60
2023-01-13T07:14:58.885Z,41.88
2023-01-13T07:17:29.307Z,30.17
2023-01-13T07:20:02.606Z,31.25
2023-01-13T07:22:33.104Z,30.60
2023-01-13T07:25:05.191Z,31.30
2023-01-13T07:27:35.699Z,40.38
2023-01-13T07:30:06.955Z,31.75
2023-01-13T07:32:37.522Z,36.38
2023-01-13T07:35:09.001Z,36.90
2023-01-13T07:37:40.641Z,31.25
2023-01-13T07:40:14.204Z,38.97
2023-01-13T07:43:01.722Z,29.55
2023-01-13T07:45:32.269Z,41.60
2023-01-13T07:48:02.761Z,35.80
2023-01-13T07:50:33.253Z,34.13
2023-01-13T07:53:03.815Z,38.08
2023-01-13T07:55:35.877Z,36.75
2023-01-13T07:58:07.273Z,41.08
2023-01-13T08:00:38.737Z,40.40
2023-01-13T08:03:12.325Z,43.22
2023-01-13T08:05:43.034Z,45.28
2023-01-13T08:08:15.833Z,43.10
2023-01-13T08:10:48.810Z,50.33
2023-01-13T08:13:28.173Z,50.20
2023-01-13T08:16:04.449Z,46.95
2023-01-13T08:19:00.245Z,39.67
2023-01-13T08:38:08.890Z,42.22
2023-01-13T09:34:25.340Z,38.33
2023-01-13T09:36:56.764Z,50.78
2023-01-13T09:39:27.304Z,42.85
2023-01-13T09:42:17.425Z,43.63
2023-01-13T09:47:34.788Z,46.13
2023-01-13T09:50:20.809Z,39.10
2023-01-13T09:52:54.345Z,42.40
2023-01-13T09:55:31.481Z,39.40
2023-01-13T09:58:08.671Z,35.10
2023-01-13T10:00:48.027Z,35.17
2023-01-13T10:03:25.289Z,33.53
2023-01-13T10:06:05.670Z,37.08
2023-01-13T10:08:41.355Z,41.40
2023-01-13T10:11:34.631Z,65.03
2023-01-13T10:14:17.598Z,53.22
2023-01-13T10:17:00.131Z,51.00
2023-01-13T10:19:39.920Z,41.70
2023-01-13T10:22:30.940Z,27.70
2023-01-13T10:25:35.218Z,41.58
2023-01-13T10:28:13.249Z,33.15
2023-01-13T10:30:47.108Z,39.85
2023-01-13T10:34:07.107Z,40.78
2023-01-13T10:40:22.991Z,32.05
2023-01-13T10:47:28.016Z,35.90
2023-01-13T10:50:21.267Z,35.92
2023-01-13T10:53:04.379Z,36.03
2023-01-13T10:56:04.866Z,51.05
2023-01-13T10:58:36.407Z,61.50
2023-01-13T11:01:10.666Z,51.50
2023-01-13T11:03:45.474Z,38.10
2023-01-13T11:06:25.374Z,37.10
2023-01-13T11:08:59.411Z,34.17
2023-01-13T11:11:48.455Z,36.72
2023-01-13T11:14:38.038Z,34.50
2023-01-13T11:17:32.172Z,32.25
2023-01-13T11:20:17.758Z,33.05
2023-01-13T11:22:52.559Z,34.58
2023-01-13T11:25:33.413Z,34.70
2023-01-13T11:28:17.915Z,33.90
2023-01-13T11:30:54.427Z,33.65
2023-01-13T11:33:42.034Z,34.78
2023-01-13T11:36:20.407Z,35.78
2023-01-13T11:38:54.567Z,35.75
2023-01-13T11:41:35.710Z,49.65
2023-01-13T11:44:21.236Z,43.50
2023-01-13T11:46:54.812Z,36.40
2023-01-13T11:49:30.102Z,37.42
2023-01-13T11:52:08.112Z,43.92
2023-01-13T11:55:12.408Z,35.53
2023-01-13T11:58:07.392Z,31.75
2023-01-13T12:00:58.742Z,35.08
2023-01-13T12:03:42.414Z,31.05
2023-01-13T12:06:26.351Z,35.72
2023-01-13T12:09:28.498Z,29.17
2023-01-13T12:12:24.082Z,34.53
2023-01-13T12:15:11.658Z,38.72
2023-01-13T12:17:59.994Z,30.20
2023-01-13T12:20:41.803Z,26.85
2023-01-13T12:23:25.227Z,26.70
2023-01-13T12:26:02.266Z,25.15
2023-01-13T12:28:47.589Z,24.38
2023-01-13T12:31:21.862Z,28.20
2023-01-13T12:38:29.180Z,22.15
2023-01-13T12:41:09.472Z,19.38
2023-01-13T12:44:08.107Z,26.55
2023-01-13T12:47:01.921Z,28.50
2023-01-13T12:49:49.460Z,28.13
2023-01-13T12:52:20.988Z,24.77
2023-01-13T12:55:20.007Z,25.33
2023-01-13T12:58:18.815Z,29.35
2023-01-13T13:01:03.057Z,17.20
2023-01-13T13:03:38.399Z,26.30
2023-01-13T13:06:20.581Z,32.03
2023-01-13T13:09:05.754Z,27.98
2023-01-13T13:15:22.225Z,32.63
2023-01-13T13:22:20.290Z,36.83
2023-01-13T13:25:32.391Z,28.00
2023-01-13T13:32:15.568Z,28.98
2023-01-13T13:35:15.925Z,37.30
2023-01-13T13:38:32.323Z,31.30
2023-01-13T13:44:55.555Z,33.47
2023-01-13T13:50:40.407Z,32.60
2023-01-13T13:56:56.614Z,35.28
2023-01-13T14:08:07.321Z,28.50
2023-01-13T14:10:43.407Z,35.67
2023-01-13T14:13:45.462Z,29.58
2023-01-13T14:20:51.094Z,29.05
2023-01-13T14:24:59.345Z,40.25
2023-01-13T14:28:02.266Z,30.83
2023-01-13T14:49:38.415Z,31.73
2023-01-13T14:53:32.182Z,28.83
2023-01-13T15:15:07.818Z,30.23
2023-01-13T15:18:58.615Z,30.88
2023-01-13T15:21:40.513Z,33.97
2023-01-13T15:25:20.362Z,37.90
2023-01-13T15:28:36.220Z,35.35
2023-01-13T15:31:21.877Z,36.17
2023-01-13T15:34:36.395Z,36.72
2023-01-13T15:45:13.706Z,32.50
2023-01-13T15:52:12.343Z,32.78
2023-01-13T15:59:02.145Z,31.48
2023-01-13T16:32:20.931Z,33.95
2023-01-13T16:54:52.152Z,28.73
2023-01-13T17:08:40.332Z,24.73
2023-01-13T17:14:36.190Z,26.75
2023-01-13T17:27:25.374Z,24.50
2023-01-13T17:38:33.307Z,22.50
2023-01-13T17:41:31.136Z,25.23
2023-01-13T17:54:47.823Z,27.95
2023-01-13T17:58:16.560Z,20.50
2023-01-13T18:13:10.533Z,23.48
2023-01-13T18:54:31.776Z,21.98
2023-01-13T19:00:44.819Z,20.48
2023-01-13T19:03:15.546Z,22.17
2023-01-13T19:05:48.245Z,22.45
2023-01-13T19:08:19.164Z,22.52
2023-01-13T19:10:50.779Z,19.20
2023-01-13T19:13:21.419Z,22.25
2023-01-13T19:15:53.736Z,15.43
2023-01-13T19:18:27.833Z,14.13
2023-01-13T19:21:05.246Z,17.02
2023-01-13T19:23:36.636Z,21.15
2023-01-13T19:26:09.107Z,13.13
2023-01-13T19:28:41.821Z,21.45
2023-01-13T19:31:21.454Z,19.13
2023-01-13T19:33:52.310Z,21.63
2023-01-13T19:36:23.330Z,16.55
2023-01-13T19:38:54.068Z,8.70
2023-01-13T19:41:41.185Z,21.85
2023-01-13T19:44:30.866Z,22.52
2023-01-13T19:47:04.535Z,20.52
2023-01-13T19:49:35.197Z,15.52
2023-01-13T19:52:08.890Z,17.85
2023-01-13T19:54:39.955Z,17.45
2023-01-13T19:57:11.885Z,13.00
2023-01-13T19:59:43.130Z,22.90
2023-01-13T20:02:18.302Z,22.60
2023-01-13T20:04:49.736Z,16.92
2023-01-13T20:07:20.942Z,19.85
2023-01-13T20:09:51.638Z,24.70
2023-01-13T20:12:22.688Z,16.25
2023-01-13T20:14:53.546Z,14.00
2023-01-13T20:17:27.881Z,11.90
2023-01-13T20:19:59.767Z,16.92
2023-01-13T20:22:30.564Z,16.15
2023-01-13T20:25:01.290Z,16.08
2023-01-13T20:27:31.853Z,14.32
2023-01-13T20:30:04.377Z,13.73
2023-01-13T20:32:36.717Z,17.75
2023-01-13T20:35:08.652Z,16.65
2023-01-13T20:37:41.088Z,14.38
2023-01-13T20:40:16.160Z,15.88
2023-01-13T20:42:48.480Z,14.95
2023-01-13T20:45:22.448Z,14.77
2023-01-13T20:47:54.641Z,9.02
2023-01-13T20:50:25.310Z,15.95
2023-01-13T20:52:55.888Z,11.27
2023-01-13T20:55:27.169Z,16.67
2023-01-13T20:57:58.897Z,11.88
2023-01-13T21:03:16.124Z,10.82
2023-01-13T21:05:46.664Z,12.85
2023-01-13T21:08:17.263Z,14.10
2023-01-13T21:10:47.938Z,11.23
2023-01-13T21:13:35.202Z,14.18
2023-01-13T21:16:06.002Z,12.68
2023-01-13T21:18:55.537Z,14.32
2023-01-13T21:21:26.654Z,14.02
2023-01-13T21:23:57.650Z,8.98
2023-01-13T21:26:28.587Z,10.10
2023-01-13T21:29:00.759Z,12.45
2023-01-13T21:31:31.291Z,11.15
2023-01-13T21:34:03.346Z,11.77
2023-01-13T21:36:33.785Z,14.52
2023-01-13T21:39:04.331Z,15.05
2023-01-13T21:41:51.590Z,12.63
2023-01-13T21:44:39.901Z,11.88
2023-01-13T21:47:34.626Z,14.57
2023-01-13T21:50:09.780Z,15.63
2023-01-13T21:52:40.444Z,15.70
2023-01-13T21:55:25.673Z,19.58
2023-01-13T21:57:57.676Z,18.77
2023-01-13T22:00:30.678Z,10.45
2023-01-13T22:03:01.092Z,10.93
2023-01-13T22:05:36.287Z,11.70
2023-01-13T22:08:07.282Z,12.43
2023-01-13T22:10:58.225Z,15.18
2023-01-13T22:13:47.632Z,13.18
2023-01-13T22:16:18.616Z,12.50
2023-01-13T22:18:49.085Z,11.02
2023-01-13T22:21:21.407Z,9.70
2023-01-13T22:23:51.879Z,10.75
2023-01-13T22:26:22.413Z,8.20
2023-01-13T22:28:52.865Z,7.50
2023-01-13T22:31:25.633Z,6.88
2023-01-13T22:33:57.135Z,8.65
2023-01-13T22:36:29.272Z,9.32
2023-01-13T22:39:01.305Z,7.05
2023-01-13T22:41:31.756Z,5.30
2023-01-13T22:44:02.241Z,7.13
2023-01-13T22:46:32.666Z,8.32
2023-01-13T22:49:03.195Z,6.78
2023-01-13T22:51:35.485Z,11.57
2023-01-13T22:54:05.970Z,5.38
2023-01-13T22:56:36.985Z,8.55
2023-01-13T22:59:10.375Z,5.28
2023-01-13T23:01:40.924Z,7.95
2023-01-13T23:04:13.671Z,4.60
2023-01-13T23:06:45.802Z,9.90
2023-01-13T23:09:16.298Z,8.77
2023-01-13T23:11:47.836Z,5.75
2023-01-13T23:14:18.532Z,8.80
2023-01-13T23:16:49.314Z,8.02
2023-01-13T23:19:19.847Z,4.00
2023-01-13T23:21:51.904Z,3.85
2023-01-13T23:24:26.605Z,3.90
2023-01-13T23:26:57.033Z,6.20
2023-01-13T23:29:27.561Z,5.35
2023-01-13T23:31:58.030Z,7.90
2023-01-13T23:34:28.648Z,5.65
2023-01-13T23:37:01.001Z,5.70
2023-01-13T23:39:31.651Z,10.88
2023-01-13T23:42:02.245Z,5.43
2023-01-13T23:44:32.864Z,4.50
2023-01-13T23:47:18.061Z,8.57
2023-01-13T23:49:48.986Z,6.90
2023-01-13T23:52:22.184Z,5.40
2023-01-13T23:54:53.996Z,9.43
2023-01-13T23:57:26.795Z,3.83
2023-01-13T23:59:58.957Z,5.25
